sensor_id;sensor_type;location;lat;lon;timestamp;pressure;altitude;pressure_sealevel;temperature;humidity
74675;BME280;63200;48.810;12.352;2022-10-16T00:01:42;97522.25;;;13.61;79.58
74675;BME280;63200;48.810;12.352;2022-10-16T00:04:08;97517.31;;;13.63;79.56
74675;BME280;63200;48.810;12.352;2022-10-16T00:06:34;97517.31;;;13.63;79.50
74675;BME280;63200;48.810;12.352;2022-10-16T00:08:59;97517.91;;;13.60;79.56
74675;BME280;63200;48.810;12.352;2022-10-16T00:11:31;97526.09;;;13.60;79.38
74675;BME280;63200;48.810;12.352;2022-10-16T00:14:00;97524.50;;;13.59;79.46
74675;BME280;63200;48.810;12.352;2022-10-16T00:16:26;97521.03;;;13.53;79.63
74675;BME280;63200;48.810;12.352;2022-10-16T00:18:52;97521.94;;;13.48;79.84
74675;BME280;63200;48.810;12.352;2022-10-16T00:21:21;97517.59;;;13.47;79.90
74675;BME280;63200;48.810;12.352;2022-10-16T00:23:53;97517.00;;;13.50;79.77
74675;BME280;63200;48.810;12.352;2022-10-16T00:26:19;97512.75;;;13.44;79.71
74675;BME280;63200;48.810;12.352;2022-10-16T00:28:48;97510.34;;;13.43;79.63
74675;BME280;63200;48.810;12.352;2022-10-16T00:31:15;97510.72;;;13.36;79.61
74675;BME280;63200;48.810;12.352;2022-10-16T00:33:42;97505.53;;;13.34;79.71
74675;BME280;63200;48.810;12.352;2022-10-16T00:36:10;97505.25;;;13.36;79.65
74675;BME280;63200;48.810;12.352;2022-10-16T00:38:35;97501.81;;;13.30;79.78
74675;BME280;63200;48.810;12.352;2022-10-16T00:41:03;97507.72;;;13.38;79.62
74675;BME280;63200;48.810;12.352;2022-10-16T00:43:49;97517.00;;;13.37;79.45
74675;BME280;63200;48.810;12.352;2022-10-16T00:48:51;97515.13;;;13.32;79.56
74675;BME280;63200;48.810;12.352;2022-10-16T00:51:24;97515.22;;;13.27;79.51
74675;BME280;63200;48.810;12.352;2022-10-16T00:53:51;97496.72;;;12.96;79.70
74675;BME280;63200;48.810;12.352;2022-10-16T00:56:17;97529.16;;;13.11;79.96
74675;BME280;63200;48.810;12.352;2022-10-16T00:58:43;97530.34;;;13.05;80.00
74675;BME280;63200;48.810;12.352;2022-10-16T01:01:08;97536.09;;;13.04;80.14
74675;BME280;63200;48.810;12.352;2022-10-16T01:03:36;97528.41;;;13.06;80.16
74675;BME280;63200;48.810;12.352;2022-10-16T01:06:16;97525.19;;;13.04;79.84
74675;BME280;63200;48.810;12.352;2022-10-16T01:14:40;97532.00;;;12.87;79.52
74675;BME280;63200;48.810;12.352;2022-10-16T01:17:33;97529.72;;;12.75;79.66
74675;BME280;63200;48.810;12.352;2022-10-16T01:20:29;97521.38;;;12.72;79.40
74675;BME280;63200;48.810;12.352;2022-10-16T01:28:34;97525.22;;;12.52;79.81
74675;BME280;63200;48.810;12.352;2022-10-16T01:31:02;97527.66;;;12.53;80.02
74675;BME280;63200;48.810;12.352;2022-10-16T01:33:46;97526.56;;;12.54;80.07
74675;BME280;63200;48.810;12.352;2022-10-16T01:36:19;97513.00;;;12.49;80.00
74675;BME280;63200;48.810;12.352;2022-10-16T01:38:47;97533.59;;;12.55;80.09
74675;BME280;63200;48.810;12.352;2022-10-16T01:41:19;97542.00;;;12.59;79.95
74675;BME280;63200;48.810;12.352;2022-10-16T01:43:50;97536.25;;;12.60;80.34
74675;BME280;63200;48.810;12.352;2022-10-16T01:46:20;97546.84;;;12.62;80.13
74675;BME280;63200;48.810;12.352;2022-10-16T01:48:46;97546.56;;;12.63;80.08
74675;BME280;63200;48.810;12.352;2022-10-16T01:51:14;97519.25;;;12.49;80.05
74675;BME280;63200;48.810;12.352;2022-10-16T01:53:41;97535.66;;;12.63;79.97
74675;BME280;63200;48.810;12.352;2022-10-16T01:56:10;97542.59;;;12.56;79.88
74675;BME280;63200;48.810;12.352;2022-10-16T01:58:41;97544.56;;;12.50;79.59
74675;BME280;63200;48.810;12.352;2022-10-16T02:01:10;97540.09;;;12.40;79.71
74675;BME280;63200;48.810;12.352;2022-10-16T02:03:41;97552.16;;;12.34;79.53
74675;BME280;63200;48.810;12.352;2022-10-16T02:06:08;97552.31;;;12.24;79.62
74675;BME280;63200;48.810;12.352;2022-10-16T02:08:34;97552.66;;;12.17;79.71
74675;BME280;63200;48.810;12.352;2022-10-16T02:11:01;97537.44;;;11.92;79.69
74675;BME280;63200;48.810;12.352;2022-10-16T02:13:31;97525.09;;;11.80;79.71
74675;BME280;63200;48.810;12.352;2022-10-16T02:15:58;97565.16;;;11.99;79.75
74675;BME280;63200;48.810;12.352;2022-10-16T02:18:24;97558.31;;;12.02;79.64
74675;BME280;63200;48.810;12.352;2022-10-16T02:21:00;97563.97;;;12.05;79.60
74675;BME280;63200;48.810;12.352;2022-10-16T02:23:49;97559.94;;;12.03;79.46
74675;BME280;63200;48.810;12.352;2022-10-16T02:26:25;97562.47;;;11.94;79.30
74675;BME280;63200;48.810;12.352;2022-10-16T02:28:55;97536.72;;;11.62;79.06
74675;BME280;63200;48.810;12.352;2022-10-16T02:31:27;97563.53;;;11.74;79.12
74675;BME280;63200;48.810;12.352;2022-10-16T02:33:56;97566.44;;;11.53;79.15
74675;BME280;63200;48.810;12.352;2022-10-16T02:36:25;97518.53;;;11.09;79.33
74675;BME280;63200;48.810;12.352;2022-10-16T02:38:51;97571.28;;;11.32;79.55
74675;BME280;63200;48.810;12.352;2022-10-16T02:41:18;97563.97;;;11.32;79.66
74675;BME280;63200;48.810;12.352;2022-10-16T02:43:43;97572.34;;;11.36;79.59
74675;BME280;63200;48.810;12.352;2022-10-16T02:46:09;97541.53;;;11.16;79.22
74675;BME280;63200;48.810;12.352;2022-10-16T02:48:34;97566.94;;;11.31;79.18
74675;BME280;63200;48.810;12.352;2022-10-16T02:51:00;97563.72;;;11.29;79.09
74675;BME280;63200;48.810;12.352;2022-10-16T02:53:26;97566.47;;;11.24;79.22
74675;BME280;63200;48.810;12.352;2022-10-16T02:55:51;97564.91;;;11.17;78.88
74675;BME280;63200;48.810;12.352;2022-10-16T02:58:16;97566.06;;;11.11;79.32
74675;BME280;63200;48.810;12.352;2022-10-16T03:00:42;97561.44;;;11.12;79.37
74675;BME280;63200;48.810;12.352;2022-10-16T03:03:07;97561.44;;;11.12;79.27
74675;BME280;63200;48.810;12.352;2022-10-16T03:05:32;97566.88;;;11.12;79.48
74675;BME280;63200;48.810;12.352;2022-10-16T03:07:58;97572.28;;;11.12;79.19
74675;BME280;63200;48.810;12.352;2022-10-16T03:10:26;97570.03;;;11.19;79.35
74675;BME280;63200;48.810;12.352;2022-10-16T03:12:51;97564.59;;;11.19;79.28
74675;BME280;63200;48.810;12.352;2022-10-16T03:15:16;97565.72;;;11.18;79.24
74675;BME280;63200;48.810;12.352;2022-10-16T03:17:42;97503.34;;;10.78;79.15
74675;BME280;63200;48.810;12.352;2022-10-16T03:20:08;97534.09;;;10.98;79.30
74675;BME280;63200;48.810;12.352;2022-10-16T03:22:33;97578.75;;;11.21;79.42
74675;BME280;63200;48.810;12.352;2022-10-16T03:24:59;97571.13;;;11.23;79.38
74675;BME280;63200;48.810;12.352;2022-10-16T03:27:24;97575.38;;;11.29;79.46
74675;BME280;63200;48.810;12.352;2022-10-16T03:29:50;97575.94;;;11.31;79.45
74675;BME280;63200;48.810;12.352;2022-10-16T03:32:15;97568.88;;;11.30;79.56
74675;BME280;63200;48.810;12.352;2022-10-16T03:34:41;97562.13;;;11.23;79.76
74675;BME280;63200;48.810;12.352;2022-10-16T03:37:06;97584.59;;;11.33;79.63
74675;BME280;63200;48.810;12.352;2022-10-16T03:39:31;97584.84;;;11.37;79.66
74675;BME280;63200;48.810;12.352;2022-10-16T03:41:57;97588.88;;;11.40;79.67
74675;BME280;63200;48.810;12.352;2022-10-16T03:44:22;97575.94;;;11.31;79.28
74675;BME280;63200;48.810;12.352;2022-10-16T03:46:47;97591.44;;;11.26;79.33
74675;BME280;63200;48.810;12.352;2022-10-16T03:49:13;97591.19;;;11.27;79.66
74675;BME280;63200;48.810;12.352;2022-10-16T03:51:38;97599.28;;;11.32;80.13
74675;BME280;63200;48.810;12.352;2022-10-16T03:54:03;97591.06;;;11.38;80.11
74675;BME280;63200;48.810;12.352;2022-10-16T03:56:29;97592.94;;;11.42;79.95
74675;BME280;63200;48.810;12.352;2022-10-16T03:58:54;97596.75;;;11.41;80.00
74675;BME280;63200;48.810;12.352;2022-10-16T04:01:19;97594.56;;;11.43;79.76
74675;BME280;63200;48.810;12.352;2022-10-16T04:03:44;97598.63;;;11.46;79.89
74675;BME280;63200;48.810;12.352;2022-10-16T04:06:10;97602.13;;;11.46;79.57
74675;BME280;63200;48.810;12.352;2022-10-16T04:08:35;97611.44;;;11.40;79.74
74675;BME280;63200;48.810;12.352;2022-10-16T04:11:02;97616.66;;;11.37;79.70
74675;BME280;63200;48.810;12.352;2022-10-16T04:13:28;97591.84;;;11.14;79.97
74675;BME280;63200;48.810;12.352;2022-10-16T04:15:53;97607.75;;;11.26;79.90
74675;BME280;63200;48.810;12.352;2022-10-16T04:18:18;97603.78;;;11.18;79.54
74675;BME280;63200;48.810;12.352;2022-10-16T04:20:44;97602.25;;;11.02;79.64
74675;BME280;63200;48.810;12.352;2022-10-16T04:23:09;97598.50;;;10.97;79.56
74675;BME280;63200;48.810;12.352;2022-10-16T04:25:35;97605.28;;;11.00;79.74
74675;BME280;63200;48.810;12.352;2022-10-16T04:28:00;97574.78;;;10.74;79.70
74675;BME280;63200;48.810;12.352;2022-10-16T04:30:26;97605.31;;;10.95;79.89
74675;BME280;63200;48.810;12.352;2022-10-16T04:32:52;97609.63;;;11.01;79.93
74675;BME280;63200;48.810;12.352;2022-10-16T04:35:18;97616.38;;;11.04;79.92
74675;BME280;63200;48.810;12.352;2022-10-16T04:37:44;97615.06;;;11.01;79.87
74675;BME280;63200;48.810;12.352;2022-10-16T04:40:10;97578.56;;;10.73;80.05
74675;BME280;63200;48.810;12.352;2022-10-16T04:42:35;97615.56;;;11.03;80.07
74675;BME280;63200;48.810;12.352;2022-10-16T04:45:00;97616.59;;;11.07;80.19
74675;BME280;63200;48.810;12.352;2022-10-16T04:47:26;97611.72;;;11.09;80.08
74675;BME280;63200;48.810;12.352;2022-10-16T04:49:51;97619.56;;;11.11;80.18
74675;BME280;63200;48.810;12.352;2022-10-16T04:52:16;97620.91;;;11.13;80.09
74675;BME280;63200;48.810;12.352;2022-10-16T04:54:43;97612.44;;;11.20;80.02
74675;BME280;63200;48.810;12.352;2022-10-16T04:57:10;97613.78;;;11.23;80.00
74675;BME280;63200;48.810;12.352;2022-10-16T04:59:35;97614.63;;;11.18;79.58
74675;BME280;63200;48.810;12.352;2022-10-16T05:02:01;97619.25;;;11.17;79.69
74675;BME280;63200;48.810;12.352;2022-10-16T05:04:26;97628.22;;;11.18;80.00
74675;BME280;63200;48.810;12.352;2022-10-16T05:06:52;97604.38;;;11.10;79.91
74675;BME280;63200;48.810;12.352;2022-10-16T05:09:17;97625.97;;;11.25;80.00
74675;BME280;63200;48.810;12.352;2022-10-16T05:11:42;97625.19;;;11.25;80.10
74675;BME280;63200;48.810;12.352;2022-10-16T05:14:08;97629.25;;;11.27;80.21
74675;BME280;63200;48.810;12.352;2022-10-16T05:16:33;97625.41;;;11.28;80.13
74675;BME280;63200;48.810;12.352;2022-10-16T05:18:58;97623.50;;;11.29;80.08
74675;BME280;63200;48.810;12.352;2022-10-16T05:21:24;97631.91;;;11.32;80.21
74675;BME280;63200;48.810;12.352;2022-10-16T05:23:49;97632.13;;;11.36;80.32
74675;BME280;63200;48.810;12.352;2022-10-16T05:26:14;97626.38;;;11.43;80.44
74675;BME280;63200;48.810;12.352;2022-10-16T05:28:40;97639.06;;;11.53;80.70
74675;BME280;63200;48.810;12.352;2022-10-16T05:31:06;97612.97;;;11.52;80.64
74675;BME280;63200;48.810;12.352;2022-10-16T05:33:32;97592.84;;;11.53;80.26
74675;BME280;63200;48.810;12.352;2022-10-16T05:36:01;97621.44;;;11.74;80.29
74675;BME280;63200;48.810;12.352;2022-10-16T05:38:27;97636.91;;;11.79;80.76
74675;BME280;63200;48.810;12.352;2022-10-16T05:40:52;97641.75;;;11.82;80.80
74675;BME280;63200;48.810;12.352;2022-10-16T05:43:18;97635.44;;;11.87;80.79
74675;BME280;63200;48.810;12.352;2022-10-16T05:45:43;97644.38;;;11.92;80.75
74675;BME280;63200;48.810;12.352;2022-10-16T05:48:09;97643.50;;;11.97;80.66
74675;BME280;63200;48.810;12.352;2022-10-16T05:50:34;97647.00;;;12.03;80.56
74675;BME280;63200;48.810;12.352;2022-10-16T05:52:59;97638.72;;;12.13;80.38
74675;BME280;63200;48.810;12.352;2022-10-16T05:55:24;97632.03;;;12.24;80.32
74675;BME280;63200;48.810;12.352;2022-10-16T05:57:50;97628.44;;;12.29;80.34
74675;BME280;63200;48.810;12.352;2022-10-16T06:00:15;97614.63;;;12.25;80.17
74675;BME280;63200;48.810;12.352;2022-10-16T06:02:41;97625.09;;;12.56;79.25
74675;BME280;63200;48.810;12.352;2022-10-16T06:05:07;97628.41;;;12.53;79.19
74675;BME280;63200;48.810;12.352;2022-10-16T06:07:35;97634.34;;;12.36;80.03
74675;BME280;63200;48.810;12.352;2022-10-16T06:10:01;97637.72;;;12.28;80.71
74675;BME280;63200;48.810;12.352;2022-10-16T06:12:26;97642.03;;;12.29;80.77
74675;BME280;63200;48.810;12.352;2022-10-16T06:14:51;97651.28;;;12.33;80.83
74675;BME280;63200;48.810;12.352;2022-10-16T06:17:17;97652.81;;;12.39;80.85
74675;BME280;63200;48.810;12.352;2022-10-16T06:19:48;97661.44;;;12.46;80.83
74675;BME280;63200;48.810;12.352;2022-10-16T06:22:13;97663.94;;;12.43;80.72
74675;BME280;63200;48.810;12.352;2022-10-16T06:24:39;97663.88;;;12.48;80.65
74675;BME280;63200;48.810;12.352;2022-10-16T06:27:04;97612.03;;;12.15;80.81
74675;BME280;63200;48.810;12.352;2022-10-16T06:29:29;97640.28;;;12.38;80.68
74675;BME280;63200;48.810;12.352;2022-10-16T06:31:55;97671.19;;;12.72;80.02
74675;BME280;63200;48.810;12.352;2022-10-16T06:34:20;97669.13;;;12.82;79.83
74675;BME280;63200;48.810;12.352;2022-10-16T06:36:45;97633.16;;;13.38;77.91
74675;BME280;63200;48.810;12.352;2022-10-16T06:39:11;97683.47;;;13.92;77.30
74675;BME280;63200;48.810;12.352;2022-10-16T06:41:36;97692.34;;;13.84;76.91
74675;BME280;63200;48.810;12.352;2022-10-16T06:44:05;97687.00;;;13.93;77.24
74675;BME280;63200;48.810;12.352;2022-10-16T06:46:30;97697.34;;;14.24;77.37
74675;BME280;63200;48.810;12.352;2022-10-16T06:48:55;97709.47;;;14.45;75.64
74675;BME280;63200;48.810;12.352;2022-10-16T06:51:22;97698.16;;;14.38;74.99
74675;BME280;63200;48.810;12.352;2022-10-16T06:53:51;97699.25;;;14.23;74.99
74675;BME280;63200;48.810;12.352;2022-10-16T06:56:20;97701.16;;;13.95;75.82
74675;BME280;63200;48.810;12.352;2022-10-16T06:58:46;97706.16;;;13.74;76.60
74675;BME280;63200;48.810;12.352;2022-10-16T07:01:12;97698.97;;;13.64;76.96
74675;BME280;63200;48.810;12.352;2022-10-16T07:03:39;97702.28;;;13.61;77.12
74675;BME280;63200;48.810;12.352;2022-10-16T07:06:07;97703.84;;;13.67;77.10
74675;BME280;63200;48.810;12.352;2022-10-16T07:08:33;97713.66;;;13.82;77.05
74675;BME280;63200;48.810;12.352;2022-10-16T07:11:04;97708.63;;;15.01;74.99
74675;BME280;63200;48.810;12.352;2022-10-16T07:13:33;97718.00;;;15.90;72.39
74675;BME280;63200;48.810;12.352;2022-10-16T07:16:04;97723.31;;;16.27;71.18
74675;BME280;63200;48.810;12.352;2022-10-16T07:18:29;97730.53;;;16.54;70.43
74675;BME280;63200;48.810;12.352;2022-10-16T07:21:09;97694.75;;;16.59;69.38
74675;BME280;63200;48.810;12.352;2022-10-16T07:23:35;97703.22;;;17.15;67.50
74675;BME280;63200;48.810;12.352;2022-10-16T07:26:01;97738.91;;;17.42;64.34
74675;BME280;63200;48.810;12.352;2022-10-16T07:28:26;97740.22;;;16.60;66.19
74675;BME280;63200;48.810;12.352;2022-10-16T07:30:52;97756.44;;;16.39;67.85
74675;BME280;63200;48.810;12.352;2022-10-16T07:33:18;97762.84;;;16.83;68.04
74675;BME280;63200;48.810;12.352;2022-10-16T07:35:50;97761.16;;;16.96;67.60
74675;BME280;63200;48.810;12.352;2022-10-16T07:38:16;97766.00;;;16.59;68.35
74675;BME280;63200;48.810;12.352;2022-10-16T07:40:42;97772.22;;;16.11;69.07
74675;BME280;63200;48.810;12.352;2022-10-16T07:43:07;97768.75;;;15.74;70.25
74675;BME280;63200;48.810;12.352;2022-10-16T07:45:33;97739.94;;;15.31;71.13
74675;BME280;63200;48.810;12.352;2022-10-16T07:47:58;97762.00;;;15.35;71.89
74675;BME280;63200;48.810;12.352;2022-10-16T07:50:23;97762.28;;;15.70;72.14
74675;BME280;63200;48.810;12.352;2022-10-16T07:52:49;97760.94;;;16.44;70.07
74675;BME280;63200;48.810;12.352;2022-10-16T07:55:14;97767.09;;;16.90;68.97
74675;BME280;63200;48.810;12.352;2022-10-16T07:57:39;97746.47;;;17.01;67.55
74675;BME280;63200;48.810;12.352;2022-10-16T08:00:05;97761.16;;;17.14;67.40
74675;BME280;63200;48.810;12.352;2022-10-16T08:02:31;97768.78;;;17.35;66.59
74675;BME280;63200;48.810;12.352;2022-10-16T08:04:56;97766.97;;;17.74;65.72
74675;BME280;63200;48.810;12.352;2022-10-16T08:07:22;97755.66;;;17.84;65.99
74675;BME280;63200;48.810;12.352;2022-10-16T08:09:49;97765.03;;;17.92;65.48
74675;BME280;63200;48.810;12.352;2022-10-16T08:12:15;97777.00;;;17.78;65.67
74675;BME280;63200;48.810;12.352;2022-10-16T08:14:40;97759.41;;;17.79;64.95
74675;BME280;63200;48.810;12.352;2022-10-16T08:17:06;97781.34;;;18.06;64.14
74675;BME280;63200;48.810;12.352;2022-10-16T08:19:31;97785.38;;;18.17;63.55
74675;BME280;63200;48.810;12.352;2022-10-16T08:21:59;97778.41;;;18.28;63.85
74675;BME280;63200;48.810;12.352;2022-10-16T08:24:24;97777.91;;;18.26;63.55
74675;BME280;63200;48.810;12.352;2022-10-16T08:26:50;97788.16;;;18.00;64.21
74675;BME280;63200;48.810;12.352;2022-10-16T08:29:15;97797.03;;;17.96;63.62
74675;BME280;63200;48.810;12.352;2022-10-16T08:31:40;97799.91;;;18.18;62.42
74675;BME280;63200;48.810;12.352;2022-10-16T08:34:06;97811.72;;;18.18;62.76
74675;BME280;63200;48.810;12.352;2022-10-16T08:36:31;97808.81;;;18.23;62.34
74675;BME280;63200;48.810;12.352;2022-10-16T08:38:56;97812.84;;;18.26;62.83
74675;BME280;63200;48.810;12.352;2022-10-16T08:52:18;97818.84;;;18.19;61.52
74675;BME280;63200;48.810;12.352;2022-10-16T08:54:47;97816.09;;;17.75;63.74
74675;BME280;63200;48.810;12.352;2022-10-16T08:57:22;97814.81;;;17.64;64.51
74675;BME280;63200;48.810;12.352;2022-10-16T08:59:49;97822.06;;;18.21;62.04
74675;BME280;63200;48.810;12.352;2022-10-16T09:02:24;97784.00;;;18.41;62.46
74675;BME280;63200;48.810;12.352;2022-10-16T09:08:15;97811.81;;;18.87;60.75
74675;BME280;63200;48.810;12.352;2022-10-16T09:13:53;97821.34;;;19.28;59.79
74675;BME280;63200;48.810;12.352;2022-10-16T09:16:30;97816.94;;;19.57;58.70
74675;BME280;63200;48.810;12.352;2022-10-16T09:21:35;97813.53;;;19.51;59.23
74675;BME280;63200;48.810;12.352;2022-10-16T09:24:11;97806.44;;;19.92;57.55
74675;BME280;63200;48.810;12.352;2022-10-16T09:26:37;97813.13;;;20.04;58.69
74675;BME280;63200;48.810;12.352;2022-10-16T09:29:03;97783.03;;;19.77;57.40
74675;BME280;63200;48.810;12.352;2022-10-16T09:31:28;97817.59;;;19.96;57.22
74675;BME280;63200;48.810;12.352;2022-10-16T09:33:57;97804.69;;;19.88;58.22
74675;BME280;63200;48.810;12.352;2022-10-16T09:36:25;97801.25;;;19.91;59.11
74675;BME280;63200;48.810;12.352;2022-10-16T09:39:06;97803.69;;;20.26;58.25
74675;BME280;63200;48.810;12.352;2022-10-16T09:41:34;97801.22;;;20.45;56.89
74675;BME280;63200;48.810;12.352;2022-10-16T09:44:01;97797.97;;;20.43;57.30
74675;BME280;63200;48.810;12.352;2022-10-16T09:46:31;97798.94;;;20.60;56.95
74675;BME280;63200;48.810;12.352;2022-10-16T09:49:03;97806.78;;;20.83;55.14
74675;BME280;63200;48.810;12.352;2022-10-16T09:51:34;97808.84;;;20.73;55.29
74675;BME280;63200;48.810;12.352;2022-10-16T09:56:35;97808.84;;;20.73;56.68
74675;BME280;63200;48.810;12.352;2022-10-16T09:59:17;97804.69;;;20.67;54.97
74675;BME280;63200;48.810;12.352;2022-10-16T10:01:51;97817.75;;;20.45;55.42
74675;BME280;63200;48.810;12.352;2022-10-16T10:04:18;97816.66;;;20.71;57.27
74675;BME280;63200;48.810;12.352;2022-10-16T10:06:54;97833.03;;;21.01;56.36
74675;BME280;63200;48.810;12.352;2022-10-16T10:09:26;97833.44;;;21.53;55.01
74675;BME280;63200;48.810;12.352;2022-10-16T10:11:56;97849.28;;;21.80;53.14
74675;BME280;63200;48.810;12.352;2022-10-16T10:16:52;97851.16;;;22.05;51.49
74675;BME280;63200;48.810;12.352;2022-10-16T10:19:22;97850.78;;;22.06;51.49
74675;BME280;63200;48.810;12.352;2022-10-16T10:21:51;97849.88;;;22.02;51.31
74675;BME280;63200;48.810;12.352;2022-10-16T10:24:18;97837.06;;;22.10;51.40
74675;BME280;63200;48.810;12.352;2022-10-16T10:29:21;97843.94;;;22.89;50.33
74675;BME280;63200;48.810;12.352;2022-10-16T10:31:56;97842.66;;;23.34;50.22
74675;BME280;63200;48.810;12.352;2022-10-16T10:37:02;97837.13;;;23.02;49.19
74675;BME280;63200;48.810;12.352;2022-10-16T10:39:38;97829.78;;;22.78;49.29
74675;BME280;63200;48.810;12.352;2022-10-16T10:42:28;97826.56;;;22.44;51.49
74675;BME280;63200;48.810;12.352;2022-10-16T10:45:26;97824.25;;;22.46;49.69
74675;BME280;63200;48.810;12.352;2022-10-16T10:51:04;97832.91;;;22.60;49.94
74675;BME280;63200;48.810;12.352;2022-10-16T10:53:58;97826.41;;;22.69;50.24
74675;BME280;63200;48.810;12.352;2022-10-16T11:02:25;97822.72;;;23.12;48.23
74675;BME280;63200;48.810;12.352;2022-10-16T11:07:52;97821.31;;;22.87;50.75
74675;BME280;63200;48.810;12.352;2022-10-16T11:10:25;97809.47;;;22.70;50.67
74675;BME280;63200;48.810;12.352;2022-10-16T11:12:59;97814.53;;;22.24;52.07
74675;BME280;63200;48.810;12.352;2022-10-16T11:15:32;97795.97;;;22.08;51.36
74675;BME280;63200;48.810;12.352;2022-10-16T11:18:22;97807.22;;;22.32;52.24
74675;BME280;63200;48.810;12.352;2022-10-16T11:20:53;97759.13;;;22.04;51.47
74675;BME280;63200;48.810;12.352;2022-10-16T11:23:26;97803.84;;;21.94;52.17
74675;BME280;63200;48.810;12.352;2022-10-16T11:25:58;97808.09;;;22.20;53.30
74675;BME280;63200;48.810;12.352;2022-10-16T11:28:42;97813.19;;;22.62;52.62
74675;BME280;63200;48.810;12.352;2022-10-16T11:31:15;97816.22;;;23.21;51.86
74675;BME280;63200;48.810;12.352;2022-10-16T11:33:47;97819.22;;;23.67;49.40
74675;BME280;63200;48.810;12.352;2022-10-16T11:36:36;97810.59;;;24.08;47.57
74675;BME280;63200;48.810;12.352;2022-10-16T11:39:19;97776.06;;;24.05;46.54
74675;BME280;63200;48.810;12.352;2022-10-16T11:41:54;97808.72;;;23.57;48.64
74675;BME280;63200;48.810;12.352;2022-10-16T11:49:41;97812.13;;;23.50;47.00
74675;BME280;63200;48.810;12.352;2022-10-16T11:54:56;97812.59;;;24.31;47.25
74675;BME280;63200;48.810;12.352;2022-10-16T11:57:27;97815.97;;;24.63;45.45
74675;BME280;63200;48.810;12.352;2022-10-16T12:00:00;97815.66;;;24.91;45.84
74675;BME280;63200;48.810;12.352;2022-10-16T12:02:50;97819.00;;;25.27;45.34
74675;BME280;63200;48.810;12.352;2022-10-16T12:05:25;97811.69;;;25.16;45.38
74675;BME280;63200;48.810;12.352;2022-10-16T12:08:09;97801.41;;;25.47;45.73
74675;BME280;63200;48.810;12.352;2022-10-16T12:10:37;97812.34;;;25.63;43.26
74675;BME280;63200;48.810;12.352;2022-10-16T12:13:32;97816.22;;;25.85;43.55
74675;BME280;63200;48.810;12.352;2022-10-16T12:18:36;97814.38;;;25.96;44.32
74675;BME280;63200;48.810;12.352;2022-10-16T12:21:02;97795.44;;;26.05;42.85
74675;BME280;63200;48.810;12.352;2022-10-16T12:23:53;97805.09;;;26.56;41.72
74675;BME280;63200;48.810;12.352;2022-10-16T12:26:43;97808.75;;;26.64;41.32
74675;BME280;63200;48.810;12.352;2022-10-16T12:29:41;97810.22;;;26.88;43.23
74675;BME280;63200;48.810;12.352;2022-10-16T12:32:26;97802.44;;;26.71;41.95
74675;BME280;63200;48.810;12.352;2022-10-16T12:34:52;97797.19;;;27.03;40.49
74675;BME280;63200;48.810;12.352;2022-10-16T12:37:24;97800.69;;;26.93;42.88
74675;BME280;63200;48.810;12.352;2022-10-16T12:39:51;97806.09;;;26.75;41.55
74675;BME280;63200;48.810;12.352;2022-10-16T12:42:38;97800.31;;;25.51;44.17
74675;BME280;63200;48.810;12.352;2022-10-16T12:45:24;97779.13;;;24.89;44.74
74675;BME280;63200;48.810;12.352;2022-10-16T12:47:52;97795.22;;;24.57;46.48
74675;BME280;63200;48.810;12.352;2022-10-16T12:50:38;97791.94;;;24.28;47.86
74675;BME280;63200;48.810;12.352;2022-10-16T12:53:21;97782.78;;;24.04;48.91
74675;BME280;63200;48.810;12.352;2022-10-16T13:01:33;97802.81;;;24.83;46.50
74675;BME280;63200;48.810;12.352;2022-10-16T13:07:08;97799.66;;;24.61;47.44
74675;BME280;63200;48.810;12.352;2022-10-16T13:09:53;97808.06;;;24.88;46.99
74675;BME280;63200;48.810;12.352;2022-10-16T13:15:19;97799.63;;;24.81;47.30
74675;BME280;63200;48.810;12.352;2022-10-16T13:20:30;97820.03;;;25.42;45.16
74675;BME280;63200;48.810;12.352;2022-10-16T13:23:19;97818.53;;;26.09;44.02
74675;BME280;63200;48.810;12.352;2022-10-16T13:26:01;97822.78;;;26.34;43.94
74675;BME280;63200;48.810;12.352;2022-10-16T13:28:32;97819.66;;;25.74;43.38
74675;BME280;63200;48.810;12.352;2022-10-16T13:30:59;97831.22;;;25.23;44.26
74675;BME280;63200;48.810;12.352;2022-10-16T13:33:33;97825.16;;;24.67;44.93
74675;BME280;63200;48.810;12.352;2022-10-16T13:36:00;97816.97;;;24.32;45.77
74675;BME280;63200;48.810;12.352;2022-10-16T13:38:34;97818.81;;;24.24;47.07
74675;BME280;63200;48.810;12.352;2022-10-16T13:41:04;97817.50;;;24.18;46.43
74675;BME280;63200;48.810;12.352;2022-10-16T13:43:39;97821.94;;;23.83;47.36
74675;BME280;63200;48.810;12.352;2022-10-16T13:46:10;97829.66;;;23.74;48.87
74675;BME280;63200;48.810;12.352;2022-10-16T13:48:37;97823.91;;;23.63;48.77
74675;BME280;63200;48.810;12.352;2022-10-16T13:53:35;97831.97;;;24.07;49.27
74675;BME280;63200;48.810;12.352;2022-10-16T13:56:05;97840.94;;;24.20;47.40
74675;BME280;63200;48.810;12.352;2022-10-16T13:58:32;97819.03;;;24.15;47.36
74675;BME280;63200;48.810;12.352;2022-10-16T14:01:03;97840.84;;;24.36;46.99
74675;BME280;63200;48.810;12.352;2022-10-16T14:03:32;97838.50;;;24.38;47.39
74675;BME280;63200;48.810;12.352;2022-10-16T14:06:00;97843.78;;;24.24;49.50
74675;BME280;63200;48.810;12.352;2022-10-16T14:08:27;97838.53;;;24.19;49.88
74675;BME280;63200;48.810;12.352;2022-10-16T14:10:56;97837.72;;;24.18;50.38
74675;BME280;63200;48.810;12.352;2022-10-16T14:13:55;97847.06;;;24.10;49.75
74675;BME280;63200;48.810;12.352;2022-10-16T14:16:27;97847.00;;;24.06;49.21
74675;BME280;63200;48.810;12.352;2022-10-16T14:19:00;97847.06;;;24.10;50.53
74675;BME280;63200;48.810;12.352;2022-10-16T14:21:27;97827.81;;;23.98;51.66
74675;BME280;63200;48.810;12.352;2022-10-16T14:23:53;97834.66;;;24.04;49.59
74675;BME280;63200;48.810;12.352;2022-10-16T14:26:24;97845.97;;;23.95;50.00